Terminal Aerodrome Forecast
Issued by NWS

Home | Current Version | Previous Version | Text Only | Print | Product List | Glossary On
Versions: 1 2 3 4 5 6 7 8 9 10 11 12 13
000
FTUS45 KABQ 161100
TAFSAF
TAF
KSAF 161139Z 1612/1712 14006KT P6SM BKN040
     FM162200 VRB15G25KT P6SM VCTS SCT035 BKN060CB
     FM170100 13006KT P6SM VCSH SCT035 BKN080
     FM171100 36007KT P6SM BKN090=

USA.gov is the U.S. government's official web portal to all federal, state and local government web resources and services.